Terminal Aerodrome Forecast
Issued by NWS

Home | Current Version | Previous Version | Text Only | Print | Product List | Glossary On
Versions: 1 2 3 4 5 6 7 8 9 10 11 12 13 14 15 16
037
FTUS46 KLOX 252344
TAFBUR
TAF
KBUR 252344Z 2600/2624 18009KT P6SM FEW015 BKN050
     FM260400 15004KT P6SM SCT050 SCT150
     FM261700 VRB03KT P6SM SCT035 BKN150
     FM262000 18009KT P6SM BKN035 BKN150=

USA.gov is the U.S. government's official web portal to all federal, state and local government web resources and services.